CW4199 Weather Reports


Display with metric or nautical units.
time (UTC)temp
F
wind
direction
speed
MPH
gust
MPH
rain 1hr
in
rain 24hr
in
rain mn
in
humidity
%
barometer
mb
20240530001925 75 60 2.0 5.0 0.00 0.00 0.00 53 1018.0
20240530000904 76 54 2.0 5.0 0.00 0.00 0.00 52 1018.0
20240529235903 76 35 3.0 7.0 0.00 0.00 0.00 52 1018.0
20240529234904 77 11 3.0 6.0 0.00 0.00 0.00 51 1017.9
20240529233903 77 338 3.0 8.0 0.00 0.00 0.00 50 1017.7
20240529232904 78 8 3.0 7.0 0.00 0.00 0.00 49 1017.8
20240529231904 78 37 4.0 7.0 0.00 0.00 0.00 47 1017.8
20240529230904 78 342 4.0 8.0 0.00 0.00 0.00 47 1017.6
20240529225903 79 350 4.0 9.0 0.00 0.00 0.00 47 1017.7
20240529224904 79 343 3.0 8.0 0.00 0.00 0.00 46 1017.7
20240529223903 79 343 5.0 11.0 0.00 0.00 0.00 45 1017.9
20240529222904 80 10 4.0 9.0 0.00 0.00 0.00 46 1017.9
20240529221904 80 33 3.0 9.0 0.00 0.00 0.00 46 1017.9
20240529220904 81 30 3.0 6.0 0.00 0.00 0.00 46 1017.9
20240529215903 81 359 3.0 6.0 0.00 0.00 0.00 47 1017.9
20240529214925 81 48 2.0 5.0 0.00 0.00 0.00 48 1018.1
20240529213904 80 331 2.0 6.0 0.00 0.00 0.00 48 1018.0
20240529212903 80 341 4.0 9.0 0.00 0.00 0.00 46 1018.2
20240529211924 81 22 3.0 7.0 0.00 0.00 0.00 48 1018.1
20240529210904 81 354 4.0 10.0 0.00 0.00 0.00 46 1018.3
20240529205903 81 70 3.0 8.0 0.00 0.00 0.00 46 1018.5
20240529204925 81 30 5.0 10.0 0.00 0.00 0.00 47 1018.6
20240529203904 81 291 4.0 10.0 0.00 0.00 0.00 45 1018.6
20240529202903 81 358 4.0 10.0 0.00 0.00 0.00 47 1018.7
20240529201903 81 65 3.0 9.0 0.00 0.00 0.00 44 1018.6
20240529200904 81 25 4.0 9.0 0.00 0.00 0.00 50 1018.8
20240529195903 81 346 6.0 11.0 0.00 0.00 0.00 46 1018.7
20240529194925 81 347 4.0 9.0 0.00 0.00 0.00 46 1019.0
20240529193904 81 344 3.0 7.0 0.00 0.00 0.00 48 1018.9
20240529192903 81 37 3.0 9.0 0.00 0.00 0.00 47 1019.1
20240529191904 80 330 3.0 6.0 0.00 0.00 0.00 48 1019.2
20240529190925 79 49 3.0 9.0 0.00 0.00 0.00 47 1019.2
20240529185903 80 24 3.0 9.0 0.00 0.00 0.00 48 1019.4
20240529184904 80 67 4.0 9.0 0.00 0.00 0.00 52 1019.4
20240529183924 79 151 2.0 8.0 0.00 0.00 0.00 52 1019.6
20240529182903 79 224 3.0 9.0 0.00 0.00 0.00 48 1019.5
20240529181925 79 24 3.0 8.0 0.00 0.00 0.00 51 1019.5
20240529180903 79 130 3.0 9.0 0.00 0.00 0.00 50 1019.6
20240529175903 79 9 3.0 11.0 0.00 0.00 0.00 52 1019.5
20240529174904 79 44 4.0 10.0 0.00 0.00 0.00 53 1019.6
20240529173903 79 54 4.0 9.0 0.00 0.00 0.00 53 1019.8
20240529172904 78 99 2.0 10.0 0.00 0.00 0.00 54 1019.8
20240529170403 78 8 4.0 11.0 0.00 0.00 0.00 51 1020.0
20240529165425 77 344 4.0 11.0 0.00 0.00 0.00 53 1020.4
20240529164403 77 12 4.0 9.0 0.00 0.00 0.00 52 1020.5
20240529163403 78 65 4.0 10.0 0.00 0.00 0.00 52 1020.4
20240529162425 78 29 5.0 9.0 0.00 0.00 0.00 53 1020.4
20240529161404 78 45 7.0 10.0 0.00 0.00 0.00 52 1020.6
20240529160403 78 71 5.0 9.0 0.00 0.00 0.00 53 1020.3
20240529155403 77 82 5.0 10.0 0.00 0.00 0.00 56 1020.6
20240529154425 77 33 3.0 9.0 0.00 0.00 0.00 56 1020.4
20240529153404 76 73 5.0 11.0 0.00 0.00 0.00 58 1020.4
20240529152403 76 37 5.0 10.0 0.00 0.00 0.00 59 1020.3
20240529151404 75 77 5.0 10.0 0.00 0.00 0.00 60 1020.4
20240529150403 75 72 6.0 10.0 0.00 0.00 0.00 60 1020.4
20240529145403 74 58 6.0 11.0 0.00 0.00 0.00 62 1020.4
20240529144425 74 22 4.0 9.0 0.00 0.00 0.00 63 1020.3
20240529143403 73 63 4.0 10.0 0.00 0.00 0.00 64 1020.4
20240529140924 72 62 3.0 11.0 0.00 0.00 0.00 66 1020.1
20240529135903 72 75 5.0 9.0 0.00 0.00 0.00 66 1019.9
20240529134904 71 43 3.0 7.0 0.00 0.00 0.00 69 1020.0
20240529133903 71 3 2.0 5.0 0.00 0.00 0.00 69 1019.9
20240529132903 70 16 1.0 4.0 0.00 0.00 0.00 74 1019.9
20240529131904 69 9 2.0 4.0 0.00 0.00 0.00 74 1019.5
20240529130924 68 26 2.0 5.0 0.00 0.00 0.00 78 1019.3
20240529125903 66 6 3.0 5.0 0.00 0.00 0.00 81 1019.4
20240529124904 66 345 1.0 4.0 0.00 0.00 0.00 82 1019.2
20240529123903 65 10 1.0 4.0 0.00 0.00 0.00 85 1018.9
20240529122903 64 20 2.0 5.0 0.00 0.00 0.00 87 1018.8
20240529121904 63 350 2.0 5.0 0.00 0.00 0.00 89 1018.8
20240529120903 62 343 7.0 11.0 0.00 0.00 0.00 90 1018.9
20240529115904 61 307 0.0 0.0 0.00 0.00 0.00 93 1018.5
20240529114925 60 307 0.0 0.0 0.00 0.00 0.00 93 1018.4
20240529113903 59 307 0.0 0.0 0.00 0.00 0.00 94 1018.3
20240529112903 58 307 0.0 0.0 0.00 0.00 0.00 94 1018.2
20240529111904 57 307 0.0 0.0 0.00 0.00 0.00 94 1018.0
20240529110903 56 307 0.0 0.0 0.00 0.00 0.00 94 1018.0
20240529105924 56 307 0.0 0.0 0.00 0.00 0.00 94 1017.9
20240529104904 56 307 0.0 0.0 0.00 0.00 0.00 94 1017.8
20240529103903 56 307 0.0 0.0 0.00 0.00 0.00 94 1017.7
20240529102903 56 307 0.0 0.0 0.00 0.00 0.00 93 1017.7
20240529100403 57 307 0.0 0.0 0.00 0.00 0.00 94 1017.4
20240529095404 57 307 0.0 0.0 0.00 0.00 0.00 93 1017.3
20240529094403 57 307 0.0 0.0 0.00 0.00 0.00 93 1017.4
20240529093404 57 307 0.0 0.0 0.00 0.00 0.00 94 1017.4
20240529092403 57 307 0.0 0.0 0.00 0.00 0.00 94 1017.4
20240529091403 57 307 0.0 0.0 0.00 0.00 0.00 93 1017.4
20240529090404 57 307 0.0 0.0 0.00 0.00 0.00 93 1017.4
20240529085403 57 307 0.0 0.0 0.00 0.00 0.00 93 1017.2
20240529084445 58 307 0.0 0.0 0.00 0.00 0.00 93 1017.3
20240529083404 58 307 0.0 0.0 0.00 0.00 0.00 93 1017.3
20240529082424 58 307 0.0 0.0 0.00 0.00 0.00 93 1017.2
20240529081403 58 307 0.0 0.0 0.00 0.00 0.00 93 1017.1
20240529080404 58 307 0.0 0.0 0.00 0.00 0.00 93 1017.1
20240529075403 58 307 0.0 0.0 0.00 0.00 0.00 92 1016.7
20240529074403 59 307 0.0 0.0 0.00 0.00 0.00 93 1016.6
20240529073404 59 307 0.0 0.0 0.00 0.00 0.00 92 1016.7
20240529072403 59 307 0.0 0.0 0.00 0.00 0.00 93 1017.0
20240529071403 59 307 0.0 0.0 0.00 0.00 0.00 92 1016.4
20240529070404 59 307 0.0 0.0 0.00 0.00 0.00 92 1016.7
20240529065403 60 307 0.0 0.0 0.00 0.00 0.00 92 1016.7
20240529064403 60 307 0.0 0.0 0.00 0.00 0.00 92 1016.8
20240529063403 60 307 0.0 0.0 0.00 0.00 0.00 91 1016.9
20240529062403 60 307 0.0 0.0 0.00 0.00 0.00 91 1016.8
20240529061403 60 307 0.0 0.0 0.00 0.00 0.00 91 1017.0
20240529060403 60 307 0.0 0.0 0.00 0.00 0.00 91 1017.0
20240529055403 61 307 0.0 0.0 0.00 0.00 0.00 91 1017.1
20240529054404 61 307 0.0 0.0 0.00 0.00 0.00 91 1016.9
20240529053403 61 307 0.0 0.0 0.00 0.00 0.00 90 1016.8
20240529052403 61 307 0.0 0.0 0.00 0.00 0.00 90 1016.6
20240529051404 62 307 0.0 0.0 0.00 0.00 0.00 90 1016.9
20240529050403 62 307 0.0 0.0 0.00 0.00 0.00 89 1016.9
20240529045403 62 307 0.0 0.0 0.00 0.00 0.00 89 1016.7
20240529044403 62 307 0.0 0.0 0.00 0.00 0.00 89 1016.6
20240529043403 62 307 0.0 0.0 0.00 0.00 0.00 88 1016.4
20240529042425 63 307 0.0 0.0 0.00 0.00 0.00 87 1016.4
20240529041424 63 307 0.0 0.0 0.00 0.00 0.00 87 1016.4
20240529040403 64 307 0.0 0.0 0.00 0.00 0.00 86 1016.4
20240529035403 64 307 0.0 0.0 0.00 0.00 0.00 85 1016.4
20240529034652 64 307 0.0 0.0 0.00 0.00 0.00 84 1016.6
20240529033646 65 307 0.0 0.0 0.00 0.00 0.00 83 1016.2
20240529023743 67 307 0.0 0.0 0.00 0.00 0.00 77 1016.1
20240529022325 68 307 0.0 0.0 0.00 0.00 0.00 75 1016.1
20240529014823 70 307 0.0 0.0 0.00 0.00 0.00 71 1016.1
20240529013615 72 307 0.0 0.0 0.00 0.00 0.00 65 1016.0
20240529003727 77 306 1.0 5.0 0.00 0.00 0.00 54 1016.1